createdAt,value
2023-03-16T00:00:41.876Z,6.59
2023-03-16T00:03:09.444Z,6.53
2023-03-16T00:05:36.263Z,6.60
2023-03-16T00:08:03.357Z,6.55
2023-03-16T00:10:30.410Z,6.57
2023-03-16T00:12:57.741Z,6.60
2023-03-16T00:15:24.720Z,6.26
2023-03-16T00:17:51.529Z,6.26
2023-03-16T00:20:18.992Z,6.48
2023-03-16T00:22:46.029Z,6.37
2023-03-16T00:25:14.652Z,6.25
2023-03-16T00:27:41.575Z,6.16
2023-03-16T00:30:09.476Z,6.28
2023-03-16T00:32:37.673Z,6.32
2023-03-16T00:35:09.145Z,6.16
2023-03-16T00:37:36.424Z,6.16
2023-03-16T00:40:03.407Z,6.08
2023-03-16T00:42:31.053Z,6.02
2023-03-16T00:44:58.839Z,6.12
2023-03-16T00:47:27.599Z,6.08
2023-03-16T00:49:54.639Z,6.17
2023-03-16T00:52:22.400Z,6.25
2023-03-16T00:54:49.775Z,6.13
2023-03-16T00:57:18.131Z,6.21
2023-03-16T00:59:46.344Z,6.25
2023-03-16T01:02:14.487Z,6.33
2023-03-16T01:04:42.435Z,6.41
2023-03-16T01:07:11.545Z,6.44
2023-03-16T01:09:39.888Z,6.19
2023-03-16T01:12:12.934Z,6.22
2023-03-16T01:14:40.209Z,6.32
2023-03-16T01:17:08.628Z,6.29
2023-03-16T01:19:37.434Z,6.30
2023-03-16T01:22:06.398Z,6.35
2023-03-16T01:24:34.021Z,6.25
2023-03-16T01:27:01.441Z,6.14
2023-03-16T01:29:28.280Z,6.23
2023-03-16T01:31:55.101Z,6.29
2023-03-16T01:34:23.190Z,6.35
2023-03-16T01:36:51.016Z,6.42
2023-03-16T01:39:17.947Z,6.44
2023-03-16T01:41:45.916Z,6.54
2023-03-16T01:44:19.325Z,6.67
2023-03-16T01:46:46.203Z,6.55
2023-03-16T01:49:24.062Z,6.55
2023-03-16T01:52:11.124Z,6.50
2023-03-16T01:54:51.723Z,6.38
2023-03-16T01:57:19.931Z,5.49
2023-03-16T02:00:09.888Z,5.50
2023-03-16T02:02:41.149Z,5.59
2023-03-16T02:05:20.949Z,5.73
2023-03-16T02:07:49.747Z,5.60
2023-03-16T02:10:20.093Z,5.77
2023-03-16T02:12:47.501Z,5.89
2023-03-16T02:15:14.886Z,6.01
2023-03-16T02:17:43.908Z,6.05
2023-03-16T02:20:47.639Z,6.21
2023-03-16T02:23:18.387Z,6.15
2023-03-16T02:25:59.637Z,5.91
2023-03-16T02:28:52.361Z,6.06
2023-03-16T02:31:20.322Z,6.17
2023-03-16T02:33:49.550Z,6.25
2023-03-16T02:36:18.905Z,6.21
2023-03-16T02:38:45.853Z,6.10
2023-03-16T02:41:18.505Z,6.15
2023-03-16T02:43:55.812Z,5.98
2023-03-16T02:46:26.891Z,5.84
2023-03-16T02:49:16.020Z,5.79
2023-03-16T02:51:45.501Z,6.02
2023-03-16T02:54:12.465Z,6.18
2023-03-16T02:56:39.934Z,5.97
2023-03-16T02:59:06.972Z,5.49
2023-03-16T03:01:33.966Z,5.41
2023-03-16T03:04:01.829Z,5.38
2023-03-16T03:06:28.950Z,5.26
2023-03-16T03:08:56.360Z,5.13
2023-03-16T03:11:23.189Z,5.06
2023-03-16T03:13:50.562Z,5.13
2023-03-16T03:16:17.428Z,4.93
2023-03-16T03:18:44.507Z,4.93
2023-03-16T03:21:11.288Z,4.82
2023-03-16T03:23:38.194Z,4.81
2023-03-16T03:26:05.582Z,4.57
2023-03-16T03:28:32.472Z,4.51
2023-03-16T03:30:59.252Z,4.38
2023-03-16T03:33:26.101Z,4.20
2023-03-16T03:36:02.079Z,4.14
2023-03-16T03:38:28.942Z,4.03
2023-03-16T03:40:55.785Z,3.90
2023-03-16T03:43:22.664Z,3.90
2023-03-16T03:45:49.637Z,3.73
2023-03-16T03:48:16.537Z,3.88
2023-03-16T03:50:43.379Z,4.00
2023-03-16T03:53:10.372Z,3.99
2023-03-16T03:55:37.266Z,3.99
2023-03-16T03:58:04.129Z,4.04
2023-03-16T04:00:31.060Z,4.03
2023-03-16T04:02:57.970Z,4.06
2023-03-16T04:05:25.756Z,4.08
2023-03-16T04:07:52.631Z,4.15
2023-03-16T04:10:19.555Z,4.20
2023-03-16T04:12:46.425Z,4.28
2023-03-16T04:15:13.260Z,4.32
2023-03-16T04:17:40.067Z,4.42
2023-03-16T04:20:07.572Z,4.84
2023-03-16T04:22:34.435Z,5.06
2023-03-16T04:25:01.260Z,5.34
2023-03-16T04:27:28.161Z,5.48
2023-03-16T04:29:55.076Z,5.52
2023-03-16T04:32:21.984Z,5.49
2023-03-16T04:34:48.804Z,5.60
2023-03-16T04:37:15.648Z,5.59
2023-03-16T04:39:42.582Z,5.45
2023-03-16T04:42:09.497Z,5.64
2023-03-16T04:44:36.476Z,5.40
2023-03-16T04:47:03.216Z,5.34
2023-03-16T04:49:30.064Z,4.70
2023-03-16T04:51:57.074Z,4.44
2023-03-16T04:54:23.956Z,4.42
2023-03-16T04:56:50.722Z,4.43
2023-03-16T04:59:17.526Z,4.34
2023-03-16T05:01:44.410Z,4.49
2023-03-16T05:04:15.028Z,4.60
2023-03-16T05:06:46.028Z,4.63
2023-03-16T05:09:12.839Z,4.61
2023-03-16T05:11:40.060Z,4.56
2023-03-16T05:14:06.982Z,4.49
2023-03-16T05:16:33.808Z,4.53
2023-03-16T05:19:01.741Z,4.75
2023-03-16T05:21:28.597Z,4.84
2023-03-16T05:23:55.486Z,4.95
2023-03-16T05:26:22.355Z,5.05
2023-03-16T05:28:49.241Z,4.88
2023-03-16T05:31:16.275Z,4.78
2023-03-16T05:33:43.538Z,4.88
2023-03-16T05:36:11.417Z,4.92
2023-03-16T05:38:38.340Z,4.95
2023-03-16T05:41:06.216Z,4.99
2023-03-16T05:43:33.335Z,5.04
2023-03-16T05:46:00.175Z,5.07
2023-03-16T05:48:27.023Z,5.16
2023-03-16T05:50:54.471Z,5.30
2023-03-16T05:53:21.807Z,5.33
2023-03-16T05:55:52.890Z,5.39
2023-03-16T05:58:19.838Z,5.48
2023-03-16T06:00:49.643Z,5.66
2023-03-16T06:03:16.972Z,5.74
2023-03-16T06:05:44.022Z,5.77
2023-03-16T06:08:10.823Z,5.80
2023-03-16T06:10:37.720Z,5.93
2023-03-16T06:13:04.725Z,5.85
2023-03-16T06:15:34.616Z,5.98
2023-03-16T06:18:04.588Z,6.02
2023-03-16T06:20:31.432Z,6.08
2023-03-16T06:22:58.244Z,6.19
2023-03-16T06:25:25.080Z,6.18
2023-03-16T06:27:51.987Z,6.17
2023-03-16T06:30:18.886Z,6.11
2023-03-16T06:32:45.866Z,6.08
2023-03-16T06:35:13.547Z,6.19
2023-03-16T06:37:40.400Z,6.35
2023-03-16T06:40:08.002Z,6.54
2023-03-16T06:42:34.826Z,6.51
2023-03-16T06:45:01.716Z,6.47
2023-03-16T06:47:28.694Z,6.71
2023-03-16T06:49:55.509Z,6.86
2023-03-16T06:52:23.110Z,6.90
2023-03-16T06:54:50.218Z,7.23
2023-03-16T06:57:17.064Z,7.39
2023-03-16T06:59:43.910Z,7.37
2023-03-16T07:02:13.075Z,7.91
2023-03-16T07:04:40.423Z,8.40
2023-03-16T07:07:07.269Z,8.60
2023-03-16T07:09:36.741Z,8.75
2023-03-16T07:12:05.700Z,9.02
2023-03-16T07:14:32.524Z,9.07
2023-03-16T07:16:59.640Z,8.74
2023-03-16T07:19:26.492Z,8.84
2023-03-16T07:21:53.582Z,9.03
2023-03-16T07:24:21.230Z,9.18
2023-03-16T07:26:47.967Z,8.82
2023-03-16T07:29:14.808Z,8.84
2023-03-16T07:31:41.712Z,8.44
2023-03-16T07:34:08.720Z,8.41
2023-03-16T07:36:35.555Z,8.24
2023-03-16T07:39:02.464Z,8.32
2023-03-16T07:41:31.629Z,8.35
2023-03-16T07:43:59.340Z,8.44
2023-03-16T07:46:26.542Z,8.31
2023-03-16T07:48:53.403Z,8.35
2023-03-16T07:51:20.219Z,8.32
2023-03-16T07:53:47.369Z,8.50
2023-03-16T07:56:14.241Z,8.26
2023-03-16T07:58:41.531Z,8.53
2023-03-16T08:01:08.561Z,8.56
2023-03-16T08:03:35.530Z,8.86
2023-03-16T08:06:02.562Z,9.19
2023-03-16T08:08:29.406Z,9.02
2023-03-16T08:10:56.744Z,8.86
2023-03-16T08:13:24.016Z,9.03
2023-03-16T08:15:52.274Z,9.37
2023-03-16T08:18:19.156Z,9.64
2023-03-16T08:20:46.035Z,9.47
2023-03-16T08:23:12.926Z,9.13
2023-03-16T08:25:39.751Z,8.98
2023-03-16T08:28:06.860Z,8.90
2023-03-16T08:30:33.820Z,8.98
2023-03-16T08:33:00.924Z,9.11
2023-03-16T08:35:27.845Z,9.44
2023-03-16T08:37:56.023Z,9.51
2023-03-16T08:40:23.140Z,9.48
2023-03-16T08:42:50.014Z,9.52
2023-03-16T08:45:17.283Z,9.60
2023-03-16T08:47:44.266Z,9.64
2023-03-16T08:50:12.858Z,9.71
2023-03-16T08:52:39.785Z,9.89
2023-03-16T08:55:07.950Z,9.92
2023-03-16T08:57:34.766Z,9.66
2023-03-16T09:00:02.133Z,9.56
2023-03-16T09:02:29.271Z,9.64
2023-03-16T09:04:56.074Z,9.60
2023-03-16T09:07:23.187Z,9.62
2023-03-16T09:09:50.206Z,9.77
2023-03-16T09:12:17.016Z,9.71
2023-03-16T09:14:43.889Z,9.68
2023-03-16T09:17:10.928Z,9.62
2023-03-16T09:19:55.711Z,9.52
2023-03-16T09:22:24.539Z,9.36
2023-03-16T09:24:51.494Z,9.42
2023-03-16T09:27:19.253Z,9.51
2023-03-16T09:29:46.798Z,9.55
2023-03-16T09:32:13.646Z,9.43
2023-03-16T09:34:40.707Z,9.29
2023-03-16T09:37:07.716Z,9.16
2023-03-16T09:39:34.573Z,9.10
2023-03-16T09:42:34.018Z,9.01
2023-03-16T09:45:12.920Z,8.92
2023-03-16T09:47:41.932Z,8.98
2023-03-16T09:50:16.713Z,9.02
2023-03-16T09:52:55.330Z,9.08
2023-03-16T09:55:25.204Z,9.21
2023-03-16T09:57:53.964Z,9.36
2023-03-16T10:00:22.849Z,9.36
2023-03-16T10:03:17.999Z,9.42
2023-03-16T10:05:47.935Z,9.54
2023-03-16T10:08:24.358Z,9.53
2023-03-16T10:11:28.589Z,9.60
2023-03-16T10:13:59.715Z,9.70
2023-03-16T10:16:46.975Z,9.74
2023-03-16T10:19:45.821Z,9.69
2023-03-16T10:22:22.545Z,9.64
2023-03-16T10:25:11.107Z,9.55
2023-03-16T10:27:40.611Z,9.51
2023-03-16T10:30:14.270Z,9.54
2023-03-16T10:32:41.071Z,9.63
2023-03-16T10:35:26.210Z,9.65
2023-03-16T10:37:53.144Z,9.66
2023-03-16T10:40:19.982Z,9.64
2023-03-16T10:42:47.700Z,9.60
2023-03-16T10:45:32.188Z,9.58
2023-03-16T10:48:18.194Z,9.56
2023-03-16T10:50:50.439Z,9.53
2023-03-16T10:53:23.237Z,9.48
2023-03-16T10:55:50.370Z,9.53
2023-03-16T10:58:25.756Z,9.53
2023-03-16T11:00:52.607Z,9.56
2023-03-16T11:03:30.287Z,9.53
2023-03-16T11:05:59.460Z,9.51
2023-03-16T11:08:28.139Z,9.49
2023-03-16T11:11:01.032Z,9.48
2023-03-16T11:13:36.590Z,9.52
2023-03-16T11:16:06.334Z,9.50
2023-03-16T11:18:41.625Z,9.50
2023-03-16T11:21:12.524Z,9.47
2023-03-16T11:23:43.236Z,9.54
2023-03-16T11:26:21.404Z,9.62
2023-03-16T11:28:56.991Z,9.53
2023-03-16T11:31:43.984Z,9.52
2023-03-16T11:34:16.550Z,9.57
2023-03-16T11:36:50.400Z,9.46
2023-03-16T11:39:44.947Z,9.45
2023-03-16T11:42:42.208Z,9.56
2023-03-16T11:45:20.673Z,9.71
2023-03-16T11:48:13.774Z,9.90
2023-03-16T11:51:05.207Z,9.88
2023-03-16T11:53:47.191Z,10.00
2023-03-16T11:56:34.371Z,10.02
2023-03-16T11:59:26.274Z,10.00
2023-03-16T12:02:05.229Z,10.05
2023-03-16T12:04:41.059Z,10.18
2023-03-16T12:07:19.774Z,10.44
2023-03-16T12:10:17.684Z,10.73
2023-03-16T12:13:02.617Z,10.85
2023-03-16T12:15:33.068Z,10.68
2023-03-16T12:18:14.163Z,10.36
2023-03-16T12:20:51.226Z,10.15
2023-03-16T12:23:29.334Z,10.18
2023-03-16T12:25:58.722Z,10.16
2023-03-16T12:28:28.493Z,10.11
2023-03-16T12:31:20.169Z,10.05
2023-03-16T12:33:56.979Z,9.83
2023-03-16T12:36:55.163Z,9.68
2023-03-16T12:39:48.884Z,9.63
2023-03-16T12:42:41.971Z,9.64
2023-03-16T12:45:16.142Z,9.75
2023-03-16T12:47:49.308Z,9.80
2023-03-16T12:50:18.040Z,9.80
2023-03-16T12:52:47.879Z,9.65
2023-03-16T12:55:17.418Z,9.63
2023-03-16T12:57:46.069Z,9.61
2023-03-16T13:00:14.779Z,9.60
2023-03-16T13:02:55.984Z,9.61
2023-03-16T13:05:35.182Z,9.62
2023-03-16T13:08:10.409Z,9.55
2023-03-16T13:10:38.558Z,9.43
2023-03-16T13:13:16.497Z,9.23
2023-03-16T13:15:44.807Z,9.19
2023-03-16T13:18:14.712Z,9.13
2023-03-16T13:21:01.217Z,9.10
2023-03-16T13:23:56.638Z,9.18
2023-03-16T13:26:45.622Z,9.21
2023-03-16T13:29:28.627Z,9.29
2023-03-16T13:32:02.187Z,9.10
2023-03-16T13:34:46.884Z,9.05
2023-03-16T13:37:15.459Z,9.02
2023-03-16T13:39:42.607Z,9.11
2023-03-16T13:42:19.381Z,9.27
2023-03-16T13:44:46.608Z,9.39
2023-03-16T13:47:20.069Z,9.60
2023-03-16T13:49:51.617Z,9.64
2023-03-16T13:52:31.834Z,9.64
2023-03-16T13:55:00.425Z,9.61
2023-03-16T13:57:30.569Z,9.38
2023-03-16T14:00:25.502Z,9.34
2023-03-16T14:03:00.233Z,9.35
2023-03-16T14:05:30.051Z,9.49
2023-03-16T14:07:57.432Z,9.42
2023-03-16T14:10:29.721Z,9.60
2023-03-16T14:12:58.684Z,9.64
2023-03-16T14:15:28.244Z,9.51
2023-03-16T14:18:13.894Z,9.41
2023-03-16T14:20:41.811Z,9.38
2023-03-16T14:23:25.935Z,9.30
2023-03-16T14:25:53.282Z,9.30
2023-03-16T14:28:27.090Z,9.27
2023-03-16T14:31:01.702Z,9.30
2023-03-16T14:33:31.232Z,9.32
2023-03-16T14:36:06.958Z,9.32
2023-03-16T14:38:36.340Z,9.31
2023-03-16T14:41:13.535Z,9.27
2023-03-16T14:43:47.344Z,9.29
2023-03-16T14:46:17.801Z,9.30
2023-03-16T14:48:44.874Z,9.29
2023-03-16T14:51:15.208Z,9.30
2023-03-16T14:53:42.177Z,9.22
2023-03-16T14:56:12.954Z,9.23
2023-03-16T14:58:40.722Z,9.25
2023-03-16T15:01:14.410Z,9.25
2023-03-16T15:03:41.721Z,9.20
2023-03-16T15:06:08.518Z,9.23
2023-03-16T15:08:36.687Z,9.24
2023-03-16T15:11:06.710Z,9.17
2023-03-16T15:13:33.975Z,9.16
2023-03-16T15:16:02.134Z,9.12
2023-03-16T15:18:29.168Z,9.07
2023-03-16T15:20:56.096Z,8.97
2023-03-16T15:23:22.954Z,8.90
2023-03-16T15:25:50.177Z,8.91
2023-03-16T15:28:18.327Z,8.86
2023-03-16T15:30:51.271Z,8.84
2023-03-16T15:33:18.524Z,8.84
2023-03-16T15:35:48.169Z,8.82
2023-03-16T15:38:24.182Z,8.74
2023-03-16T15:40:52.056Z,8.70
2023-03-16T15:43:27.431Z,8.71
2023-03-16T15:45:56.444Z,8.75
2023-03-16T15:48:23.472Z,8.72
2023-03-16T15:51:16.450Z,8.75
2023-03-16T15:53:50.177Z,8.69
2023-03-16T15:56:24.196Z,8.60
2023-03-16T16:10:16.944Z,8.63
2023-03-16T16:12:45.090Z,8.78
2023-03-16T16:15:22.396Z,8.78
2023-03-16T16:18:09.955Z,8.69
2023-03-16T16:20:37.284Z,8.82
2023-03-16T16:23:04.412Z,8.85
2023-03-16T16:25:37.521Z,8.90
2023-03-16T16:28:21.039Z,8.97
2023-03-16T16:30:48.772Z,8.99
2023-03-16T16:33:22.805Z,9.02
2023-03-16T16:35:49.667Z,8.91
2023-03-16T16:38:16.519Z,8.84
2023-03-16T16:40:43.758Z,8.84
2023-03-16T16:43:37.662Z,8.81
2023-03-16T16:46:16.237Z,8.65
2023-03-16T16:48:46.527Z,8.53
2023-03-16T16:51:24.708Z,8.45
2023-03-16T16:53:54.110Z,8.37
2023-03-16T16:56:26.377Z,8.42
2023-03-16T16:58:54.199Z,8.48
2023-03-16T17:01:30.176Z,8.41
2023-03-16T17:03:57.523Z,8.30
2023-03-16T17:06:24.611Z,8.26
2023-03-16T17:08:51.657Z,8.28
2023-03-16T17:11:28.208Z,8.27
2023-03-16T17:13:57.765Z,8.20
2023-03-16T17:16:25.273Z,8.23
2023-03-16T17:18:52.172Z,8.30
2023-03-16T17:21:21.923Z,8.31
2023-03-16T17:23:49.885Z,8.32
2023-03-16T17:26:23.831Z,8.33
2023-03-16T17:28:57.738Z,8.20
2023-03-16T17:31:28.026Z,8.17
2023-03-16T17:33:56.283Z,8.09
2023-03-16T17:36:23.110Z,8.00
2023-03-16T17:38:50.264Z,8.03
2023-03-16T17:41:30.128Z,8.05
2023-03-16T17:44:03.028Z,8.04
2023-03-16T17:46:31.827Z,8.07
2023-03-16T17:48:58.777Z,8.03
2023-03-16T17:51:25.727Z,7.90
2023-03-16T17:53:52.644Z,7.94
2023-03-16T17:56:27.085Z,7.92
2023-03-16T17:58:56.490Z,7.92
2023-03-16T18:01:34.168Z,7.97
2023-03-16T18:04:02.972Z,7.95
2023-03-16T18:06:31.053Z,7.83
2023-03-16T18:08:58.393Z,7.90
2023-03-16T18:11:37.526Z,7.91
2023-03-16T18:14:08.747Z,7.96
2023-03-16T18:16:36.753Z,7.99
2023-03-16T18:19:17.223Z,8.06
2023-03-16T18:21:44.716Z,8.10
2023-03-16T18:24:15.301Z,7.91
2023-03-16T18:26:43.727Z,7.93
2023-03-16T18:29:12.756Z,7.84
2023-03-16T18:31:43.384Z,7.86
2023-03-16T18:34:28.276Z,7.87
2023-03-16T18:36:56.528Z,7.92
2023-03-16T18:39:24.090Z,7.94
2023-03-16T18:41:52.299Z,7.68
2023-03-16T18:44:22.489Z,7.72
2023-03-16T18:46:53.327Z,7.77
2023-03-16T18:49:28.453Z,7.67
2023-03-16T18:51:56.432Z,7.47
2023-03-16T18:54:31.929Z,7.01
2023-03-16T18:56:59.666Z,6.63
2023-03-16T18:59:27.518Z,6.63
2023-03-16T19:01:57.912Z,6.70
2023-03-16T19:04:30.584Z,6.62
2023-03-16T19:06:57.818Z,6.82
2023-03-16T19:09:29.476Z,7.00
2023-03-16T19:11:59.581Z,7.10
2023-03-16T19:14:33.522Z,7.18
2023-03-16T19:17:00.843Z,7.16
2023-03-16T19:19:27.751Z,7.16
2023-03-16T19:22:07.412Z,7.27
2023-03-16T19:24:55.148Z,7.40
2023-03-16T19:27:35.426Z,7.49
2023-03-16T19:30:02.883Z,7.31
2023-03-16T19:32:29.825Z,7.09
2023-03-16T19:34:57.182Z,7.23
2023-03-16T19:37:24.199Z,7.34
2023-03-16T19:39:54.213Z,7.38
2023-03-16T19:42:28.713Z,7.44
2023-03-16T19:44:56.388Z,7.46
2023-03-16T19:47:30.965Z,7.48
2023-03-16T19:49:58.383Z,7.20
2023-03-16T19:52:26.460Z,6.88
2023-03-16T19:54:53.362Z,6.77
2023-03-16T19:57:20.909Z,6.93
2023-03-16T19:59:53.303Z,6.98
2023-03-16T20:02:43.930Z,7.01
2023-03-16T20:05:17.877Z,6.99
2023-03-16T20:07:44.734Z,7.05
2023-03-16T20:10:20.060Z,6.97
2023-03-16T20:12:49.673Z,6.81
2023-03-16T20:15:18.638Z,6.54
2023-03-16T20:17:46.420Z,6.46
2023-03-16T20:20:29.899Z,6.72
2023-03-16T20:22:57.210Z,6.88
2023-03-16T20:25:25.761Z,6.91
2023-03-16T20:27:57.456Z,6.97
2023-03-16T20:30:24.476Z,7.05
2023-03-16T20:32:56.221Z,7.14
2023-03-16T20:35:26.857Z,7.18
2023-03-16T20:37:55.259Z,7.26
2023-03-16T20:40:23.434Z,7.23
2023-03-16T20:42:51.775Z,7.17
2023-03-16T20:45:24.681Z,7.19
2023-03-16T20:47:54.787Z,7.16
2023-03-16T20:50:30.913Z,7.22
2023-03-16T20:52:58.898Z,7.26
2023-03-16T20:55:27.614Z,7.25
2023-03-16T20:57:55.412Z,7.10
2023-03-16T21:00:27.259Z,7.14
2023-03-16T21:02:55.023Z,7.11
2023-03-16T21:05:23.463Z,7.13
2023-03-16T21:07:52.072Z,7.14
2023-03-16T21:10:23.660Z,7.17
2023-03-16T21:12:56.217Z,7.20
2023-03-16T21:15:32.381Z,7.18
2023-03-16T21:18:00.897Z,7.18
2023-03-16T21:20:30.952Z,7.21
2023-03-16T21:22:59.376Z,7.22
2023-03-16T21:25:30.369Z,7.22
2023-03-16T21:28:03.610Z,6.76
2023-03-16T21:30:40.184Z,6.18
2023-03-16T21:33:30.705Z,6.31
2023-03-16T21:35:59.084Z,6.52
2023-03-16T21:38:28.408Z,6.28
2023-03-16T21:40:56.519Z,6.24
2023-03-16T21:43:23.977Z,6.24
2023-03-16T21:45:51.231Z,6.13
2023-03-16T21:48:23.890Z,6.13
2023-03-16T21:50:52.879Z,6.30
2023-03-16T21:53:26.381Z,6.44
2023-03-16T21:55:53.937Z,6.53
2023-03-16T21:58:21.396Z,6.32
2023-03-16T22:00:49.746Z,5.94
2023-03-16T22:03:47.989Z,5.72
2023-03-16T22:06:16.600Z,5.44
2023-03-16T22:08:43.610Z,5.48
2023-03-16T22:11:17.205Z,5.65
2023-03-16T22:13:44.079Z,5.86
2023-03-16T22:16:20.842Z,5.10
2023-03-16T22:18:50.385Z,4.43
2023-03-16T22:21:34.603Z,4.60
2023-03-16T22:24:02.838Z,4.92
2023-03-16T22:26:30.141Z,5.26
2023-03-16T22:28:59.292Z,5.44
2023-03-16T22:31:35.914Z,5.63
2023-03-16T22:34:04.318Z,5.67
2023-03-16T22:36:33.071Z,5.72
2023-03-16T22:39:07.410Z,5.78
2023-03-16T22:41:34.405Z,5.63
2023-03-16T22:44:01.674Z,5.70
2023-03-16T22:46:29.559Z,5.80
2023-03-16T22:48:57.609Z,5.86
2023-03-16T22:51:29.612Z,5.88
2023-03-16T22:54:06.364Z,5.81
2023-03-16T22:56:34.918Z,5.68
2023-03-16T22:59:05.899Z,5.36
2023-03-16T23:01:40.623Z,4.77
2023-03-16T23:04:18.835Z,4.61
2023-03-16T23:06:47.376Z,4.41
2023-03-16T23:09:16.656Z,4.10
2023-03-16T23:11:45.382Z,4.07
2023-03-16T23:14:34.924Z,4.27
2023-03-16T23:17:01.764Z,4.28
2023-03-16T23:19:32.590Z,3.96
2023-03-16T23:22:02.367Z,3.76
2023-03-16T23:24:29.466Z,4.04
2023-03-16T23:26:56.412Z,4.08
2023-03-16T23:29:24.446Z,4.14
2023-03-16T23:31:51.343Z,4.27
2023-03-16T23:34:20.689Z,4.36
2023-03-16T23:36:48.067Z,4.47
2023-03-16T23:39:15.102Z,4.39
2023-03-16T23:41:45.841Z,4.38
2023-03-16T23:44:19.559Z,4.39
2023-03-16T23:46:46.457Z,4.51
2023-03-16T23:49:23.548Z,4.61
2023-03-16T23:51:50.816Z,4.66
2023-03-16T23:54:24.531Z,4.70
2023-03-16T23:56:51.540Z,4.60
2023-03-16T23:59:18.828Z,4.78
